Time;durP1;ratioP1;P1;durP2;ratioP2;P2;SDS_P1;SDS_P2;PMS_P1;PMS_P2;Temp;Humidity;BMP_temperature;BMP_pressure;BME280_temperature;BME280_humidity;BME280_pressure;Samples;Min_cycle;Max_cycle;Signal;HPM_P1;HPM_P2
2021/03/19 00:01:39;;;;;;;17.80;3.92;;;28.20;21.10;;;;;;5039555;28;20074;-70
2021/03/19 00:04:09;;;;;;;9.38;3.58;;;28.30;21.50;;;;;;5040139;28;20070;-69
2021/03/19 00:06:37;;;;;;;17.85;3.95;;;28.20;21.30;;;;;;5041251;28;20092;-69
2021/03/19 00:09:06;;;;;;;12.95;3.45;;;28.10;21.20;;;;;;5035198;28;20554;-69
2021/03/19 00:11:33;;;;;;;20.35;3.40;;;28.00;21.50;;;;;;5018025;28;20139;-70
2021/03/19 00:14:00;;;;;;;14.27;2.90;;;28.00;21.30;;;;;;5037880;28;20152;-70
2021/03/19 00:16:27;;;;;;;11.57;2.95;;;27.90;21.80;;;;;;5039980;28;20074;-69
2021/03/19 00:18:54;;;;;;;21.48;6.35;;;28.00;21.70;;;;;;5031316;28;20160;-69
2021/03/19 00:21:20;;;;;;;16.70;3.22;;;27.90;21.50;;;;;;5047574;28;20078;-71
2021/03/19 00:23:48;;;;;;;10.30;2.92;;;27.80;21.90;;;;;;5039471;28;20078;-69
2021/03/19 00:26:14;;;;;;;11.30;3.00;;;27.70;21.60;;;;;;5040500;28;20081;-69
2021/03/19 00:28:41;;;;;;;13.93;3.55;;;27.60;21.20;;;;;;5036212;28;20542;-69
2021/03/19 00:31:10;;;;;;;16.83;4.30;;;27.60;21.80;;;;;;5036806;28;20073;-70
2021/03/19 00:33:42;;;;;;;19.15;3.33;;;27.60;21.10;;;;;;5019961;28;20081;-71
2021/03/19 00:36:11;;;;;;;14.10;2.92;;;27.60;21.70;;;;;;5034926;28;20078;-70
2021/03/19 00:38:37;;;;;;;15.65;3.20;;;27.60;21.30;;;;;;5015485;28;20090;-70
2021/03/19 00:41:04;;;;;;;18.83;3.55;;;27.60;21.80;;;;;;5036640;28;20157;-70
2021/03/19 00:43:31;;;;;;;13.45;2.60;;;27.50;21.50;;;;;;5042835;28;20065;-70
2021/03/19 00:45:58;;;;;;;9.80;3.20;;;27.40;21.50;;;;;;5038276;28;20096;-70
2021/03/19 00:48:24;;;;;;;7.50;2.97;;;27.30;21.50;;;;;;5039528;28;20142;-71
2021/03/19 00:50:52;;;;;;;14.43;3.80;;;27.20;21.70;;;;;;5045277;28;20155;-72
2021/03/19 00:53:18;;;;;;;20.23;3.35;;;27.30;21.60;;;;;;5023939;28;20126;-71
2021/03/19 00:55:45;;;;;;;22.42;4.30;;;27.10;21.50;;;;;;5015815;28;20077;-70
2021/03/19 00:58:12;;;;;;;17.58;3.05;;;27.00;21.70;;;;;;5018093;28;20082;-70
2021/03/19 01:00:39;;;;;;;25.33;3.30;;;26.90;21.90;;;;;;5015726;28;20114;-71
2021/03/19 01:03:07;;;;;;;15.20;3.15;;;26.70;22.30;;;;;;5011857;28;20070;-71
2021/03/19 01:05:39;;;;;;;18.73;2.83;;;26.60;22.40;;;;;;5018561;28;20070;-71
2021/03/19 01:08:07;;;;;;;50.88;5.57;;;26.50;22.50;;;;;;5030454;28;20074;-70
2021/03/19 01:10:40;;;;;;;29.55;4.43;;;26.40;22.50;;;;;;5016207;28;20081;-71
2021/03/19 01:13:07;;;;;;;25.10;3.95;;;26.40;22.50;;;;;;5014670;28;20082;-71
2021/03/19 01:15:34;;;;;;;16.70;3.47;;;26.40;22.50;;;;;;5015087;28;20078;-71
2021/03/19 01:18:01;;;;;;;11.90;3.58;;;26.70;22.20;;;;;;5022075;28;20078;-71
2021/03/19 01:20:30;;;;;;;30.10;3.90;;;26.80;22.00;;;;;;5017646;28;20078;-71
2021/03/19 01:22:57;;;;;;;24.95;4.35;;;26.70;22.20;;;;;;5014250;28;20071;-71
2021/03/19 01:25:25;;;;;;;24.23;4.00;;;26.40;22.50;;;;;;5033570;28;20109;-72
2021/03/19 01:27:52;;;;;;;22.98;3.47;;;26.20;22.80;;;;;;5016272;28;20077;-72
2021/03/19 01:30:21;;;;;;;16.50;3.15;;;26.00;22.90;;;;;;5018150;28;20082;-71
2021/03/19 01:32:48;;;;;;;13.00;2.90;;;25.80;23.20;;;;;;5021384;28;20603;-71
2021/03/19 01:35:16;;;;;;;23.42;3.60;;;25.70;23.40;;;;;;5017882;28;20442;-70
2021/03/19 01:37:46;;;;;;;15.35;2.80;;;25.50;23.90;;;;;;5017289;28;20074;-70
2021/03/19 01:40:14;;;;;;;16.35;2.28;;;25.40;24.20;;;;;;5013423;28;20160;-71
2021/03/19 01:43:09;;;;;;;18.13;3.03;;;25.20;24.40;;;;;;5035171;28;20074;-70
2021/03/19 01:46:13;;;;;;;18.25;3.25;;;25.10;24.70;;;;;;5015791;28;20574;-72
2021/03/19 01:49:16;;;;;;;18.73;3.70;;;24.90;24.60;;;;;;5017015;28;20161;-70
2021/03/19 01:52:20;;;;;;;24.10;3.60;;;24.80;24.90;;;;;;5020982;28;20616;-70
2021/03/19 01:55:23;;;;;;;22.23;3.42;;;24.70;25.20;;;;;;5033746;28;20078;-69
2021/03/19 01:58:27;;;;;;;29.00;3.40;;;24.50;25.70;;;;;;5038371;28;20434;-70
2021/03/19 02:01:30;;;;;;;25.35;3.47;;;24.40;25.80;;;;;;5036185;28;20081;-68
2021/03/19 02:04:52;;;;;;;20.92;3.30;;;24.20;26.10;;;;;;5035493;28;20077;-70
2021/03/19 02:07:56;;;;;;;24.00;3.53;;;24.10;26.50;;;;;;4975534;28;20081;-70
2021/03/19 02:11:00;;;;;;;16.70;3.17;;;23.90;26.50;;;;;;5038377;28;20074;-71
2021/03/19 02:14:06;;;;;;;21.55;3.88;;;23.80;26.40;;;;;;5040424;28;20077;-71
2021/03/19 02:17:09;;;;;;;40.63;4.28;;;23.60;26.80;;;;;;5039090;28;20074;-69
2021/03/19 02:20:13;;;;;;;31.58;4.65;;;23.50;26.90;;;;;;5039478;28;20559;-70
2021/03/19 02:23:16;;;;;;;26.20;5.40;;;23.50;27.20;;;;;;5035915;28;20164;-70
2021/03/19 02:26:20;;;;;;;31.48;8.18;;;23.30;27.20;;;;;;5037739;28;20415;-68
2021/03/19 02:29:23;;;;;;;33.72;10.13;;;23.20;27.10;;;;;;5035215;28;20069;-69
2021/03/19 02:32:09;;;;;;;37.42;10.43;;;23.10;27.50;;;;;;5033671;28;20105;-68
2021/03/19 02:34:38;;;;;;;35.78;11.25;;;23.00;27.80;;;;;;5036384;28;20081;-69
2021/03/19 02:37:07;;;;;;;38.45;13.30;;;22.90;28.00;;;;;;5034515;28;20077;-70
2021/03/19 02:39:34;;;;;;;37.17;14.95;;;22.90;28.30;;;;;;5031552;28;20545;-69
2021/03/19 02:42:01;;;;;;;47.03;15.65;;;22.70;28.80;;;;;;5019531;28;20121;-70
2021/03/19 02:44:28;;;;;;;39.85;15.68;;;22.70;29.30;;;;;;5036848;28;20612;-70
2021/03/19 02:46:54;;;;;;;40.45;17.92;;;22.60;29.00;;;;;;5034990;28;20070;-68
2021/03/19 02:49:21;;;;;;;43.85;21.73;;;22.50;29.10;;;;;;5036874;28;20400;-68
2021/03/19 02:51:48;;;;;;;56.50;23.02;;;22.40;29.50;;;;;;5037044;28;20185;-69
2021/03/19 02:54:14;;;;;;;45.05;23.23;;;22.40;29.70;;;;;;5036306;28;20085;-68
2021/03/19 02:56:41;;;;;;;52.72;20.85;;;22.30;30.00;;;;;;5036775;28;20077;-70
2021/03/19 02:59:08;;;;;;;50.35;21.70;;;22.20;30.20;;;;;;5033805;28;20148;-70
2021/03/19 03:01:35;;;;;;;46.55;19.48;;;22.20;30.80;;;;;;5033391;28;20096;-70
2021/03/19 03:04:02;;;;;;;48.83;19.58;;;22.10;31.20;;;;;;5036178;28;20172;-70
2021/03/19 03:06:45;;;;;;;42.88;18.95;;;22.00;31.40;;;;;;5037503;28;20131;-69
2021/03/19 03:09:21;;;;;;;46.38;16.10;;;21.90;31.90;;;;;;5043417;28;20118;-70
2021/03/19 03:11:48;;;;;;;37.13;15.50;;;21.90;31.80;;;;;;5039307;28;20069;-70
2021/03/19 03:14:18;;;;;;;30.25;14.57;;;21.80;31.90;;;;;;5039611;28;20208;-71
2021/03/19 03:16:45;;;;;;;40.92;15.57;;;21.70;32.20;;;;;;5037809;28;20101;-70
2021/03/19 03:19:17;;;;;;;38.70;15.32;;;21.70;33.10;;;;;;5036256;28;20097;-69
2021/03/19 03:21:44;;;;;;;46.92;17.10;;;21.60;33.10;;;;;;5038296;28;20070;-70
2021/03/19 03:24:12;;;;;;;48.33;15.55;;;21.60;33.40;;;;;;5044724;22;20129;-71
2021/03/19 03:26:39;;;;;;;46.20;15.30;;;21.50;33.80;;;;;;5031873;28;20093;-70
2021/03/19 03:29:07;;;;;;;41.38;16.30;;;21.50;34.10;;;;;;5032989;28;20101;-72
2021/03/19 03:31:34;;;;;;;44.13;15.45;;;21.40;34.20;;;;;;5034420;28;20065;-69
2021/03/19 03:34:01;;;;;;;40.65;14.45;;;21.30;34.40;;;;;;5034883;28;20124;-70
2021/03/19 03:36:31;;;;;;;45.13;15.43;;;21.20;34.60;;;;;;5035691;28;20070;-71
2021/03/19 03:39:07;;;;;;;42.17;14.38;;;21.20;34.90;;;;;;5034150;28;20219;-70
2021/03/19 03:41:37;;;;;;;33.83;13.55;;;21.10;35.20;;;;;;5033766;28;20080;-70
2021/03/19 03:44:05;;;;;;;41.25;14.32;;;21.10;35.80;;;;;;5033891;28;20165;-70
2021/03/19 03:46:35;;;;;;;41.90;13.55;;;21.00;35.60;;;;;;5033496;28;20100;-70
2021/03/19 03:49:04;;;;;;;29.13;12.75;;;20.90;35.60;;;;;;5034332;28;20124;-71
2021/03/19 03:51:37;;;;;;;48.17;13.35;;;20.90;35.70;;;;;;5033352;28;20082;-70
2021/03/19 03:54:05;;;;;;;51.80;12.95;;;20.70;35.80;;;;;;5033907;28;20157;-70
2021/03/19 03:56:32;;;;;;;33.15;12.70;;;20.70;36.10;;;;;;5032937;28;20105;-70
2021/03/19 03:58:59;;;;;;;37.05;12.52;;;20.70;36.60;;;;;;5032335;28;20097;-70
2021/03/19 04:01:26;;;;;;;44.80;13.07;;;20.60;37.00;;;;;;5033495;28;20070;-70
2021/03/19 04:03:54;;;;;;;52.17;12.32;;;20.60;37.00;;;;;;5031654;28;20096;-70
2021/03/19 04:06:22;;;;;;;40.75;10.50;;;20.50;37.00;;;;;;5033273;28;20088;-71
2021/03/19 04:08:49;;;;;;;36.30;10.77;;;20.50;37.60;;;;;;5033296;28;20085;-71
2021/03/19 04:11:19;;;;;;;36.88;10.18;;;20.40;37.70;;;;;;5033691;28;20073;-71
2021/03/19 04:13:46;;;;;;;44.33;10.55;;;20.40;36.80;;;;;;5033543;28;20074;-70
2021/03/19 04:16:14;;;;;;;30.00;9.98;;;20.30;37.10;;;;;;5033025;28;20153;-70
2021/03/19 04:18:41;;;;;;;28.92;9.02;;;20.20;37.70;;;;;;5031658;28;20097;-71
2021/03/19 04:21:12;;;;;;;29.45;10.07;;;20.20;37.40;;;;;;5031819;28;20086;-71
2021/03/19 04:23:44;;;;;;;37.05;11.48;;;20.10;37.40;;;;;;5033086;28;20160;-70
2021/03/19 04:26:33;;;;;;;39.90;11.00;;;20.00;37.50;;;;;;5033430;28;20120;-69
2021/03/19 04:29:00;;;;;;;39.33;9.32;;;20.00;37.70;;;;;;5033231;28;20074;-70
2021/03/19 04:31:27;;;;;;;39.63;10.07;;;20.00;37.70;;;;;;5032943;28;20077;-70
2021/03/19 04:33:55;;;;;;;38.70;11.38;;;19.90;40.50;;;;;;5032884;28;20082;-71
2021/03/19 04:36:51;;;;;;;56.70;11.10;;;19.90;38.30;;;;;;5032293;28;20161;-69
2021/03/19 04:39:25;;;;;;;50.58;11.98;;;19.80;38.00;;;;;;5047497;28;20561;-71
2021/03/19 04:41:54;;;;;;;61.47;12.88;;;19.70;37.90;;;;;;5032330;28;20075;-72
2021/03/19 04:44:24;;;;;;;52.05;12.77;;;19.70;38.20;;;;;;5033814;28;20108;-71
2021/03/19 04:46:51;;;;;;;67.97;12.95;;;19.70;38.60;;;;;;5030864;28;20546;-70
2021/03/19 04:49:19;;;;;;;61.90;12.55;;;19.70;38.50;;;;;;5033470;28;20135;-71
2021/03/19 04:51:46;;;;;;;60.22;12.82;;;19.60;39.20;;;;;;5031585;28;20077;-69
2021/03/19 04:54:16;;;;;;;74.65;12.55;;;19.50;38.70;;;;;;5032860;28;20074;-70
2021/03/19 04:56:51;;;;;;;70.63;13.85;;;19.50;38.80;;;;;;5032839;28;20077;-71
2021/03/19 04:59:23;;;;;;;64.38;12.98;;;19.50;38.60;;;;;;5030594;28;20102;-70
2021/03/19 05:01:59;;;;;;;62.30;13.90;;;19.40;38.60;;;;;;5032718;28;20116;-71
2021/03/19 05:04:26;;;;;;;72.50;13.93;;;19.40;38.80;;;;;;5029397;28;20585;-70
2021/03/19 05:07:09;;;;;;;71.95;14.32;;;19.40;39.50;;;;;;5032504;28;20334;-70
2021/03/19 05:09:36;;;;;;;80.78;14.95;;;19.30;38.90;;;;;;5037849;28;20518;-71
2021/03/19 05:12:05;;;;;;;80.13;15.55;;;19.30;39.80;;;;;;5032990;28;20124;-70
2021/03/19 05:14:32;;;;;;;67.72;15.93;;;19.30;39.60;;;;;;5026956;28;20075;-69
2021/03/19 05:16:58;;;;;;;85.25;18.60;;;19.30;39.40;;;;;;5030594;28;20430;-69
2021/03/19 05:19:25;;;;;;;70.68;17.33;;;19.20;39.50;;;;;;5031524;28;20121;-69
2021/03/19 05:21:54;;;;;;;84.63;19.45;;;19.20;39.80;;;;;;5032144;28;20070;-70
2021/03/19 05:24:20;;;;;;;81.65;21.83;;;19.20;39.80;;;;;;5014824;28;20481;-69
2021/03/19 05:26:47;;;;;;;89.05;21.95;;;19.10;39.90;;;;;;5029681;28;20128;-70
2021/03/19 05:29:13;;;;;;;71.25;22.23;;;19.10;40.20;;;;;;5029183;28;20101;-69
2021/03/19 05:31:47;;;;;;;86.78;20.38;;;19.10;40.40;;;;;;5035576;28;20594;-69
2021/03/19 05:34:14;;;;;;;81.47;21.35;;;19.00;40.50;;;;;;5046214;28;20127;-70
2021/03/19 05:36:41;;;;;;;72.07;20.67;;;19.00;41.70;;;;;;5031665;28;20093;-70
2021/03/19 05:39:09;;;;;;;91.70;21.80;;;19.00;41.70;;;;;;5031748;28;20094;-71
2021/03/19 05:41:38;;;;;;;88.07;19.35;;;18.90;41.30;;;;;;5031033;28;20568;-69
2021/03/19 05:44:10;;;;;;;71.20;19.00;;;18.90;41.40;;;;;;5030624;28;20082;-70
2021/03/19 05:46:44;;;;;;;83.60;19.58;;;18.80;41.60;;;;;;5030195;28;20082;-70
2021/03/19 05:49:10;;;;;;;72.43;19.38;;;18.80;42.70;;;;;;5029790;28;20078;-69
2021/03/19 05:51:39;;;;;;;80.10;20.85;;;18.70;43.10;;;;;;5029687;28;20124;-69
2021/03/19 05:54:15;;;;;;;111.93;20.55;;;18.70;42.30;;;;;;5029967;28;20553;-69
2021/03/19 05:56:43;;;;;;;85.10;20.70;;;18.60;42.80;;;;;;5029847;28;20074;-69
2021/03/19 05:59:09;;;;;;;76.38;19.90;;;18.50;43.10;;;;;;5028271;28;20108;-69
2021/03/19 06:01:38;;;;;;;76.10;19.65;;;18.40;42.60;;;;;;5028956;28;20084;-69
2021/03/19 06:04:05;;;;;;;65.78;20.17;;;18.40;42.70;;;;;;5029790;28;20078;-69
2021/03/19 06:07:04;;;;;;;77.30;19.08;;;18.40;42.80;;;;;;5029879;28;20088;-68
2021/03/19 06:09:35;;;;;;;86.00;21.00;;;18.30;43.10;;;;;;5030129;28;20074;-68
2021/03/19 06:12:09;;;;;;;84.63;20.55;;;18.40;43.50;;;;;;5029097;28;20082;-69
2021/03/19 06:14:59;;;;;;;92.53;20.17;;;18.40;43.50;;;;;;5029594;28;20065;-67
2021/03/19 06:17:33;;;;;;;92.13;19.15;;;18.30;43.50;;;;;;5029261;28;20074;-68
2021/03/19 06:20:03;;;;;;;85.88;18.92;;;18.30;43.90;;;;;;5028359;28;20199;-68
2021/03/19 06:22:45;;;;;;;97.93;20.15;;;18.30;44.20;;;;;;5044087;28;20649;-68
2021/03/19 06:25:41;;;;;;;86.68;18.95;;;18.20;44.00;;;;;;5028412;28;20096;-69
2021/03/19 06:28:40;;;;;;;88.95;18.60;;;18.20;44.60;;;;;;5028347;28;20070;-69
2021/03/19 06:31:21;;;;;;;69.50;17.83;;;18.10;44.80;;;;;;5027921;28;20081;-67
2021/03/19 06:34:01;;;;;;;60.17;17.15;;;18.10;44.70;;;;;;5044805;28;20557;-68
2021/03/19 06:36:28;;;;;;;296.95;32.40;;;18.00;44.70;;;;;;5029648;28;20127;-67
2021/03/19 06:39:05;;;;;;;166.07;24.92;;;18.00;45.00;;;;;;5029846;28;20105;-68
2021/03/19 06:41:35;;;;;;;112.72;20.27;;;17.90;44.90;;;;;;5033890;28;20078;-68
2021/03/19 06:44:34;;;;;;;113.68;19.58;;;17.90;44.70;;;;;;5033861;28;20527;-68
2021/03/19 06:47:04;;;;;;;76.88;17.23;;;17.80;45.00;;;;;;5025337;28;20097;-66
2021/03/19 06:49:48;;;;;;;80.45;18.38;;;17.80;45.30;;;;;;5033900;28;20068;-68
2021/03/19 06:52:21;;;;;;;73.70;17.40;;;17.80;45.30;;;;;;5033827;28;20074;-68
2021/03/19 06:54:56;;;;;;;94.50;16.58;;;17.80;45.20;;;;;;5033317;28;20077;-68
2021/03/19 06:57:42;;;;;;;63.72;15.88;;;17.80;45.40;;;;;;5016465;28;20082;-67
2021/03/19 07:00:12;;;;;;;72.53;16.30;;;17.70;45.40;;;;;;5032755;28;20109;-68
2021/03/19 07:02:48;;;;;;;58.08;14.23;;;17.70;45.50;;;;;;5034952;28;20082;-67
2021/03/19 07:05:40;;;;;;;78.18;16.20;;;17.60;45.60;;;;;;5033592;28;20073;-67
2021/03/19 07:08:28;;;;;;;78.97;18.52;;;17.60;45.80;;;;;;5033515;28;20070;-67
2021/03/19 07:11:23;;;;;;;72.55;17.88;;;17.60;46.40;;;;;;5033988;28;20074;-67
2021/03/19 07:14:03;;;;;;;60.50;17.00;;;17.50;46.90;;;;;;5014243;28;21328;-67
2021/03/19 07:17:02;;;;;;;65.90;16.45;;;17.50;46.90;;;;;;5031464;28;20080;-67
2021/03/19 07:20:08;;;;;;;63.08;17.60;;;17.40;47.20;;;;;;5033806;28;20100;-67
2021/03/19 07:22:53;;;;;;;67.95;17.95;;;17.40;47.30;;;;;;5033897;28;20117;-67
2021/03/19 07:25:35;;;;;;;75.45;17.63;;;17.30;46.50;;;;;;5033735;28;20082;-68
2021/03/19 07:28:17;;;;;;;65.47;17.92;;;17.20;46.60;;;;;;5033432;28;20093;-68
2021/03/19 07:31:15;;;;;;;65.57;15.60;;;17.20;46.70;;;;;;5031913;28;20082;-68
2021/03/19 07:34:00;;;;;;;;;;;17.20;47.30;;;;;;5034276;28;20074;-67
2021/03/19 07:36:50;;;;;;;57.13;16.27;;;17.20;47.00;;;;;;5033926;28;19969;-67
2021/03/19 07:39:40;;;;;;;68.45;17.00;;;17.10;47.10;;;;;;5051262;28;20551;-66
2021/03/19 07:42:10;;;;;;;64.82;17.40;;;17.10;47.50;;;;;;5032574;28;20176;-67
2021/03/19 07:44:49;;;;;;;66.72;17.17;;;17.10;47.40;;;;;;5049149;28;20163;-67
2021/03/19 07:47:33;;;;;;;54.80;16.05;;;17.10;47.80;;;;;;5031294;28;20078;-68
2021/03/19 07:50:04;;;;;;;77.03;16.85;;;17.00;47.70;;;;;;5032628;28;20074;-67
2021/03/19 07:52:41;;;;;;;52.53;17.15;;;17.00;48.40;;;;;;5030778;28;20074;-66
2021/03/19 07:55:13;;;;;;;;;;;16.90;48.70;;;;;;5033872;28;20074;-66
2021/03/19 07:58:03;;;;;;;55.63;15.93;;;16.90;49.00;;;;;;5033293;28;20421;-67
2021/03/19 08:00:50;;;;;;;58.47;16.75;;;16.80;48.20;;;;;;5033080;28;20121;-66
2021/03/19 08:03:30;;;;;;;63.28;17.17;;;16.80;48.20;;;;;;5030885;28;20194;-67
2021/03/19 08:06:00;;;;;;;71.13;17.55;;;16.70;48.50;;;;;;5033359;28;20165;-67
2021/03/19 08:09:10;;;;;;;77.20;18.45;;;16.70;48.90;;;;;;5032559;28;20070;-66
2021/03/19 08:11:51;;;;;;;58.30;20.25;;;16.80;48.50;;;;;;5033547;28;20116;-67
2021/03/19 08:14:54;;;;;;;63.45;21.15;;;16.70;48.50;;;;;;5036623;28;20070;-66
2021/03/19 08:17:29;;;;;;;73.35;21.48;;;16.60;48.60;;;;;;5033198;28;20157;-66
2021/03/19 08:20:16;;;;;;;71.82;22.58;;;16.60;48.90;;;;;;5034513;28;20117;-67
2021/03/19 08:23:01;;;;;;;63.53;22.65;;;16.50;49.60;;;;;;5048786;28;20078;-66
2021/03/19 08:25:35;;;;;;;67.80;23.00;;;16.50;49.80;;;;;;5032231;28;20093;-67
2021/03/19 08:28:16;;;;;;;80.20;21.98;;;16.50;49.90;;;;;;5033238;28;20070;-66
2021/03/19 08:31:19;;;;;;;60.15;17.92;;;16.50;50.00;;;;;;5032295;28;20078;-66
2021/03/19 08:34:13;;;;;;;60.50;19.08;;;16.40;49.00;;;;;;5033343;28;20152;-67
2021/03/19 08:36:51;;;;;;;53.15;18.15;;;16.40;49.00;;;;;;5049200;28;20078;-67
2021/03/19 08:39:44;;;;;;;44.75;15.40;;;16.30;48.50;;;;;;5032034;28;20180;-68
2021/03/19 08:42:30;;;;;;;45.13;15.18;;;16.30;48.30;;;;;;5048370;28;20112;-67
2021/03/19 08:45:01;;;;;;;42.38;13.60;;;16.30;47.80;;;;;;5033507;28;20070;-68
2021/03/19 08:47:47;;;;;;;44.05;14.95;;;16.20;47.30;;;;;;5033152;28;20430;-66
2021/03/19 08:50:49;;;;;;;48.25;13.63;;;16.20;47.80;;;;;;5041157;28;20085;-67
2021/03/19 08:53:22;;;;;;;46.38;14.93;;;16.20;47.90;;;;;;5024877;28;20425;-67
2021/03/19 08:56:11;;;;;;;37.22;13.43;;;16.20;47.90;;;;;;5033078;28;20530;-68
2021/03/19 08:58:48;;;;;;;38.63;13.27;;;16.20;47.80;;;;;;5046601;28;20090;-68
2021/03/19 09:01:49;;;;;;;38.15;13.05;;;16.10;48.40;;;;;;5032617;28;20074;-67
2021/03/19 09:04:17;;;;;;;33.13;12.23;;;16.10;48.40;;;;;;5031481;28;20081;-67
2021/03/19 09:07:21;;;;;;;48.22;13.18;;;16.10;48.40;;;;;;5032414;28;20070;-67
2021/03/19 09:09:49;;;;;;;43.85;13.27;;;16.00;48.20;;;;;;5032179;28;20070;-68
2021/03/19 09:12:23;;;;;;;48.85;14.52;;;16.00;48.40;;;;;;5031459;28;20070;-67
2021/03/19 09:14:53;;;;;;;57.45;16.23;;;15.90;48.40;;;;;;5030464;28;20131;-66
2021/03/19 09:18:07;;;;;;;65.85;15.25;;;16.00;48.90;;;;;;5031706;28;20093;-67
2021/03/19 09:21:00;;;;;;;64.05;15.30;;;16.00;48.60;;;;;;5028298;28;20108;-67
2021/03/19 09:23:58;;;;;;;55.95;16.00;;;16.00;47.50;;;;;;5030520;28;20113;-66
2021/03/19 09:26:31;;;;;;;;;;;16.00;47.50;;;;;;5032031;28;21541;-66
2021/03/19 09:29:20;;;;;;;56.25;17.10;;;15.90;48.40;;;;;;5031482;28;19958;-67
2021/03/19 09:31:56;;;;;;;65.82;17.75;;;15.90;47.90;;;;;;5031065;28;20078;-67
2021/03/19 09:34:47;;;;;;;58.17;16.75;;;15.80;48.30;;;;;;5030995;28;20065;-66
2021/03/19 09:37:38;;;;;;;53.67;16.75;;;15.80;48.30;;;;;;5019618;28;20129;-67
2021/03/19 09:40:08;;;;;;;65.85;16.27;;;15.80;48.50;;;;;;5030984;28;20102;-67
2021/03/19 09:42:40;;;;;;;61.38;18.00;;;15.70;48.40;;;;;;5030983;28;20074;-67
2021/03/19 09:45:06;;;;;;;59.10;17.35;;;15.70;48.20;;;;;;5031795;28;20065;-67
2021/03/19 09:47:34;;;;;;;;;;;15.70;48.10;;;;;;5031360;28;20535;-67
2021/03/19 09:50:23;;;;;;;57.50;17.52;;;15.70;47.70;;;;;;5031745;28;19958;-66
2021/03/19 09:53:23;;;;;;;61.45;16.80;;;15.60;47.50;;;;;;5030508;28;20077;-66
2021/03/19 09:55:53;;;;;;;70.15;17.58;;;15.60;47.80;;;;;;5025085;28;20085;-67
2021/03/19 09:58:37;;;;;;;88.22;19.80;;;15.60;47.60;;;;;;5030431;28;20082;-66
2021/03/19 10:01:12;;;;;;;70.03;17.77;;;15.50;47.90;;;;;;5030407;28;20074;-66
2021/03/19 10:03:48;;;;;;;84.72;22.90;;;15.50;47.50;;;;;;5030010;28;20070;-66
2021/03/19 10:06:29;;;;;;;75.55;20.40;;;15.50;47.80;;;;;;5030167;28;20074;-66
2021/03/19 10:09:13;;;;;;;65.07;21.13;;;15.50;48.00;;;;;;5030422;28;20078;-66
2021/03/19 10:11:54;;;;;;;74.22;19.77;;;15.50;48.00;;;;;;5028453;28;20433;-67
2021/03/19 10:14:31;;;;;;;69.82;19.75;;;15.40;48.10;;;;;;5030797;28;20074;-66
2021/03/19 10:17:12;;;;;;;64.60;19.75;;;15.30;48.30;;;;;;5029519;28;20073;-67
2021/03/19 10:19:41;;;;;;;78.80;21.70;;;15.30;48.40;;;;;;5030534;28;20098;-67
2021/03/19 10:22:09;;;;;;;87.03;22.63;;;15.30;49.00;;;;;;5029330;28;20081;-68
2021/03/19 10:24:37;;;;;;;92.10;22.75;;;15.30;48.90;;;;;;5028425;28;20121;-67
2021/03/19 10:27:13;;;;;;;108.40;23.35;;;15.30;49.00;;;;;;5030178;28;20076;-67
2021/03/19 10:29:44;;;;;;;72.70;22.35;;;15.20;48.70;;;;;;5029865;28;20086;-66
2021/03/19 10:32:16;;;;;;;90.55;24.23;;;15.20;49.30;;;;;;5030146;28;20066;-66
2021/03/19 10:34:53;;;;;;;85.55;25.35;;;15.10;49.00;;;;;;5029545;28;20085;-67
2021/03/19 10:37:43;;;;;;;75.22;23.23;;;15.10;48.90;;;;;;5027679;28;20074;-66
2021/03/19 10:40:12;;;;;;;99.90;24.58;;;15.00;48.90;;;;;;5030165;28;20116;-67
2021/03/19 10:42:55;;;;;;;95.18;25.08;;;14.90;49.10;;;;;;5030044;28;20102;-67
2021/03/19 10:45:22;;;;;;;70.22;21.85;;;14.90;49.70;;;;;;5027031;28;20093;-67
2021/03/19 10:48:18;;;;;;;85.65;23.90;;;14.90;49.40;;;;;;5030102;28;20082;-67
2021/03/19 10:51:02;;;;;;;81.60;22.90;;;14.80;49.40;;;;;;5036349;28;20072;-67
2021/03/19 10:53:55;;;;;;;78.40;21.33;;;14.60;49.00;;;;;;5030344;28;20093;-67
2021/03/19 10:56:24;;;;;;;77.75;22.02;;;14.70;49.30;;;;;;5035652;28;20084;-66
2021/03/19 10:58:55;;;;;;;68.47;22.00;;;14.60;49.80;;;;;;5027346;28;20098;-67
2021/03/19 11:01:44;;;;;;;77.40;21.63;;;14.70;49.70;;;;;;5029897;28;20080;-67
2021/03/19 11:04:35;;;;;;;164.38;23.55;;;14.70;49.90;;;;;;5027617;28;20257;-67
2021/03/19 11:07:30;;;;;;;88.47;21.67;;;14.70;49.90;;;;;;5030325;28;20408;-67
2021/03/19 11:10:15;;;;;;;86.15;22.75;;;14.70;50.30;;;;;;5030005;28;20074;-66
2021/03/19 11:12:48;;;;;;;82.93;22.08;;;14.70;50.30;;;;;;5029271;28;20526;-66
2021/03/19 11:15:21;;;;;;;81.63;21.35;;;14.60;50.00;;;;;;5029810;28;20082;-66
2021/03/19 11:17:47;;;;;;;67.00;21.50;;;14.60;50.40;;;;;;5029280;28;20077;-66
2021/03/19 11:20:37;;;;;;;71.82;21.33;;;14.60;50.30;;;;;;5028241;28;20093;-66
2021/03/19 11:23:16;;;;;;;71.20;20.83;;;14.60;50.00;;;;;;5025704;28;20506;-66
2021/03/19 11:25:49;;;;;;;83.72;20.80;;;14.60;49.70;;;;;;5027982;28;20180;-67
2021/03/19 11:28:39;;;;;;;70.53;19.73;;;14.60;49.80;;;;;;5031663;28;20166;-66
2021/03/19 11:31:13;;;;;;;61.10;19.10;;;14.60;49.20;;;;;;5030924;28;20082;-66
2021/03/19 11:33:59;;;;;;;70.38;18.55;;;14.60;49.20;;;;;;5032698;28;20088;-67
2021/03/19 11:36:28;;;;;;;66.55;18.65;;;14.60;48.60;;;;;;5032467;28;20089;-66
2021/03/19 11:39:10;;;;;;;61.53;18.33;;;14.60;48.50;;;;;;5044037;28;20100;-67
2021/03/19 11:41:42;;;;;;;58.95;18.42;;;14.50;48.70;;;;;;5033687;28;20094;-66
2021/03/19 11:44:13;;;;;;;53.53;17.25;;;14.40;48.30;;;;;;5033561;28;20070;-66
2021/03/19 11:46:40;;;;;;;55.67;17.77;;;14.40;48.20;;;;;;5032994;28;20070;-66
2021/03/19 11:49:07;;;;;;;66.80;18.05;;;14.40;48.40;;;;;;5048820;28;20081;-66
2021/03/19 11:51:39;;;;;;;61.72;16.88;;;14.40;48.50;;;;;;5033906;28;20070;-66
2021/03/19 11:54:09;;;;;;;61.60;16.90;;;14.40;48.60;;;;;;5033462;28;20081;-66
2021/03/19 11:56:38;;;;;;;51.60;15.73;;;14.40;48.20;;;;;;5034225;28;20078;-66
2021/03/19 11:59:09;;;;;;;50.40;16.20;;;14.40;48.10;;;;;;5033091;28;20446;-66
2021/03/19 12:01:37;;;;;;;56.47;15.43;;;14.30;48.00;;;;;;5031826;28;20149;-67
2021/03/19 12:04:04;;;;;;;53.58;18.25;;;14.40;48.30;;;;;;5033033;28;20534;-66
2021/03/19 12:06:33;;;;;;;63.97;18.35;;;14.40;48.60;;;;;;5032912;28;20153;-67
2021/03/19 12:09:00;;;;;;;51.50;18.30;;;14.30;48.50;;;;;;5032562;28;20597;-66
2021/03/19 12:11:35;;;;;;;55.08;17.33;;;14.30;48.00;;;;;;5032722;28;20089;-66
2021/03/19 12:14:04;;;;;;;64.30;19.15;;;14.20;47.60;;;;;;5031131;28;20423;-67
2021/03/19 12:16:31;;;;;;;45.25;16.08;;;14.20;48.00;;;;;;5032797;28;20161;-65
2021/03/19 12:18:58;;;;;;;49.10;15.55;;;14.10;47.40;;;;;;5032333;28;20119;-65
2021/03/19 12:21:25;;;;;;;48.15;16.15;;;14.10;47.10;;;;;;5032984;28;20155;-66
2021/03/19 12:23:52;;;;;;;35.50;14.38;;;14.10;46.80;;;;;;5031097;28;20121;-66
2021/03/19 12:26:18;;;;;;;47.05;14.38;;;14.00;47.10;;;;;;5029939;28;20506;-67
2021/03/19 12:28:45;;;;;;;43.03;13.93;;;14.00;47.40;;;;;;5032256;28;20074;-65
2021/03/19 12:31:13;;;;;;;42.55;14.68;;;14.00;47.50;;;;;;5032442;28;20070;-66
2021/03/19 12:33:40;;;;;;;44.10;14.50;;;14.00;47.00;;;;;;5032402;28;20123;-66
2021/03/19 12:36:09;;;;;;;36.78;13.88;;;14.00;46.90;;;;;;5032010;28;20085;-66
2021/03/19 12:38:36;;;;;;;48.60;14.48;;;13.90;47.00;;;;;;5030515;28;20078;-67
2021/03/19 12:41:03;;;;;;;50.10;14.13;;;13.90;46.80;;;;;;5032198;28;20081;-66
2021/03/19 12:43:30;;;;;;;46.05;13.70;;;13.90;47.10;;;;;;5032393;28;20175;-66
2021/03/19 12:45:57;;;;;;;43.60;14.32;;;13.80;46.50;;;;;;5031958;28;20112;-66
2021/03/19 12:48:24;;;;;;;46.05;13.95;;;13.80;47.00;;;;;;5031425;28;20062;-66
2021/03/19 12:50:51;;;;;;;42.25;15.23;;;13.70;47.00;;;;;;5030821;28;20085;-65
2021/03/19 12:53:21;;;;;;;45.65;15.70;;;13.70;47.50;;;;;;5032429;28;20124;-66
2021/03/19 12:55:48;;;;;;;42.00;15.15;;;13.70;47.70;;;;;;5031886;28;20074;-66
2021/03/19 12:58:15;;;;;;;42.97;14.68;;;13.60;47.50;;;;;;5047411;28;20073;-66
2021/03/19 13:00:42;;;;;;;44.45;14.75;;;13.70;47.90;;;;;;5031716;28;20093;-66
2021/03/19 13:03:10;;;;;;;53.67;16.08;;;13.70;48.30;;;;;;5031504;28;20066;-66
2021/03/19 13:05:41;;;;;;;48.28;14.73;;;13.70;48.60;;;;;;5046989;28;20101;-66
2021/03/19 13:08:08;;;;;;;37.47;15.05;;;13.60;48.50;;;;;;5031864;28;20531;-66
2021/03/19 13:10:36;;;;;;;45.70;14.93;;;13.70;48.50;;;;;;5029824;28;20070;-66
2021/03/19 13:13:03;;;;;;;42.03;15.55;;;13.60;48.50;;;;;;5032044;28;20584;-67
2021/03/19 13:15:33;;;;;;;59.20;15.45;;;13.60;48.70;;;;;;5031580;28;20086;-66